Time;durP1;ratioP1;P1;durP2;ratioP2;P2;SDS_P1;SDS_P2;PMS_P1;PMS_P2;Temp;Humidity;BMP_temperature;BMP_pressure;BME280_temperature;BME280_humidity;BME280_pressure;Samples;Min_cycle;Max_cycle;Signal;HPM_P1;HPM_P2
2022/05/13 00:00:08;;;;;;;;;;;;;;;;;;1038088;28;3764;-48
2022/05/13 00:01:02;;;;;;;;;;;;;;;;;;1032096;28;4435;-49
2022/05/13 00:01:32;;;;;;;;;;;;;;;;;;1033077;28;2186;-46
2022/05/13 00:02:06;;;;;;;;;;;;;;;;;;1032112;28;4241;-47
2022/05/13 00:02:37;;;;;;;;;;;;;;;;;;1037959;28;1484;-49
2022/05/13 00:03:07;;;;;;;;;;;;;;;;;;1037333;28;4063;-45
2022/05/13 00:03:38;;;;;;;;;;;;;;;;;;1041782;28;2239;-49
2022/05/13 00:04:08;;;;;;;;;;;;;;;;;;1037313;28;4001;-47
2022/05/13 00:04:39;;;;;;;;;;;;;;;;;;1037628;28;1986;-48
2022/05/13 00:05:09;;;;;;;;;;;;;;;;;;1036408;28;4089;-48
2022/05/13 00:05:39;;;;;;;;;;;;;;;;;;1034945;28;3813;-50
2022/05/13 00:06:16;;;;;;;;;;;;;;;;;;1040805;28;4315;-50
2022/05/13 00:06:47;;;;;;;;;;;;;;;;;;1040651;28;3565;-49
2022/05/13 00:07:17;;;;;;;;;;;;;;;;;;1040549;28;3804;-50
2022/05/13 00:07:47;;;;;;;;;;;;;;;;;;1036896;28;3369;-47
2022/05/13 00:08:24;;;;;;;;;;;;;;;;;;1038081;28;3891;-47
2022/05/13 00:08:54;;;;;;;;;;;;;;;;;;1034336;28;4830;-48
2022/05/13 00:10:20;;;;;;;;;;;;;;;;;;1036349;28;4347;-46
2022/05/13 00:10:50;;;;;;;;;;;;;;;;;;1036112;28;4225;-49
2022/05/13 00:11:21;;;;;;;;;;;;;;;;;;1036508;28;1925;-48
2022/05/13 00:11:51;;;;;;;;;;;;;;;;;;1037527;28;4229;-46
2022/05/13 00:12:22;;;;;;;;;;;;;;;;;;1037579;28;1724;-48
2022/05/13 00:12:53;;;;;;;;;;;;;;;;;;1041705;28;3930;-49
2022/05/13 00:13:23;;;;;;;;;;;;;;;;;;1042273;28;1658;-47
2022/05/13 00:13:53;;;;;;;;;;;;;;;;;;1040454;28;4428;-47
2022/05/13 00:14:30;;;;;;;;;;;;;;;;;;1040523;28;3082;-47
2022/05/13 00:15:01;;;;;;;;;;;;;;;;;;1042025;28;3916;-49
2022/05/13 00:15:31;;;;;;;;;;;;;;;;;;1038472;28;1570;-46
2022/05/13 00:16:04;;;;;;;;;;;;;;;;;;1035947;28;4119;-48
2022/05/13 00:16:37;;;;;;;;;;;;;;;;;;1038180;28;1423;-49
2022/05/13 00:17:08;;;;;;;;;;;;;;;;;;1037214;28;3774;-46
2022/05/13 00:17:38;;;;;;;;;;;;;;;;;;1042141;28;1553;-48
2022/05/13 00:18:09;;;;;;;;;;;;;;;;;;1039090;28;3887;-51
2022/05/13 00:18:39;;;;;;;;;;;;;;;;;;1037825;28;1430;-47
2022/05/13 00:19:11;;;;;;;;;;;;;;;;;;1036727;28;4117;-49
2022/05/13 00:19:41;;;;;;;;;;;;;;;;;;1037334;28;4185;-46
2022/05/13 00:20:12;;;;;;;;;;;;;;;;;;1035751;28;3884;-48
2022/05/13 00:20:42;;;;;;;;;;;;;;;;;;1041463;28;2885;-48
2022/05/13 00:21:13;;;;;;;;;;;;;;;;;;1041738;28;3848;-52
2022/05/13 00:21:43;;;;;;;;;;;;;;;;;;1037818;28;3773;-53
2022/05/13 00:22:14;;;;;;;;;;;;;;;;;;1038676;28;3742;-47
2022/05/13 00:22:45;;;;;;;;;;;;;;;;;;1039569;28;1670;-49
2022/05/13 00:23:15;;;;;;;;;;;;;;;;;;1035134;28;3804;-49
2022/05/13 00:23:45;;;;;;;;;;;;;;;;;;1035142;28;1706;-47
2022/05/13 00:24:16;;;;;;;;;;;;;;;;;;1034562;28;3798;-49
2022/05/13 00:24:46;;;;;;;;;;;;;;;;;;1034827;28;1589;-46
2022/05/13 00:25:17;;;;;;;;;;;;;;;;;;1041181;28;3829;-46
2022/05/13 00:25:48;;;;;;;;;;;;;;;;;;1041186;28;1824;-47
2022/05/13 00:26:18;;;;;;;;;;;;;;;;;;1041369;28;3868;-46
2022/05/13 00:26:48;;;;;;;;;;;;;;;;;;1041347;28;2256;-47
2022/05/13 00:27:19;;;;;;;;;;;;;;;;;;1040306;28;3762;-50
2022/05/13 00:27:49;;;;;;;;;;;;;;;;;;1042159;28;2160;-46
2022/05/13 00:28:19;;;;;;;;;;;;;;;;;;1041355;28;3813;-45
2022/05/13 00:28:50;;;;;;;;;;;;;;;;;;1041904;28;3836;-47
2022/05/13 00:29:20;;;;;;;;;;;;;;;;;;1041481;28;3698;-48
2022/05/13 00:29:50;;;;;;;;;;;;;;;;;;1040427;28;4207;-49
2022/05/13 00:30:21;;;;;;;;;;;;;;;;;;1042071;28;1436;-45
2022/05/13 00:30:51;;;;;;;;;;;;;;;;;;1040680;28;3946;-50
2022/05/13 00:31:22;;;;;;;;;;;;;;;;;;1041537;28;1676;-46
2022/05/13 00:31:52;;;;;;;;;;;;;;;;;;1041338;28;3978;-50
2022/05/13 00:32:22;;;;;;;;;;;;;;;;;;1041556;28;1263;-45
2022/05/13 00:33:07;;;;;;;;;;;;;;;;;;1032135;28;4223;-49
2022/05/13 00:33:38;;;;;;;;;;;;;;;;;;1033691;28;1822;-47
2022/05/13 00:34:09;;;;;;;;;;;;;;;;;;1033225;28;3795;-46
2022/05/13 00:34:39;;;;;;;;;;;;;;;;;;1033716;28;2426;-49
2022/05/13 00:35:09;;;;;;;;;;;;;;;;;;1031113;28;3990;-47
2022/05/13 00:35:40;;;;;;;;;;;;;;;;;;1031934;28;3822;-47
2022/05/13 00:36:10;;;;;;;;;;;;;;;;;;1033424;28;3937;-49
2022/05/13 00:36:40;;;;;;;;;;;;;;;;;;1033272;28;1992;-48
2022/05/13 00:37:11;;;;;;;;;;;;;;;;;;1032776;28;4242;-48
2022/05/13 00:37:41;;;;;;;;;;;;;;;;;;1033555;28;1477;-48
2022/05/13 00:38:11;;;;;;;;;;;;;;;;;;1032864;28;3745;-49
2022/05/13 00:38:41;;;;;;;;;;;;;;;;;;1033729;28;1637;-46
2022/05/13 00:39:12;;;;;;;;;;;;;;;;;;1031813;28;3931;-47
2022/05/13 00:39:42;;;;;;;;;;;;;;;;;;1032759;28;3737;-48
2022/05/13 00:40:12;;;;;;;;;;;;;;;;;;1033808;28;3983;-47
2022/05/13 00:40:43;;;;;;;;;;;;;;;;;;1030011;28;1716;-48
2022/05/13 00:41:14;;;;;;;;;;;;;;;;;;1029149;28;4852;-48
2022/05/13 00:41:45;;;;;;;;;;;;;;;;;;1030174;28;2089;-45
2022/05/13 00:42:17;;;;;;;;;;;;;;;;;;1029576;28;3943;-47
2022/05/13 00:42:48;;;;;;;;;;;;;;;;;;1036612;28;1599;-48
2022/05/13 00:43:38;;;;;;;;;;;;;;;;;;1033028;28;3818;-48
2022/05/13 00:44:08;;;;;;;;;;;;;;;;;;1033858;28;3928;-46
2022/05/13 00:44:39;;;;;;;;;;;;;;;;;;1031602;28;2254;-50
2022/05/13 00:45:13;;;;;;;;;;;;;;;;;;1032977;28;4022;-46
2022/05/13 00:45:43;;;;;;;;;;;;;;;;;;1033443;28;1704;-53
2022/05/13 00:46:13;;;;;;;;;;;;;;;;;;1033091;28;3749;-47
2022/05/13 00:46:44;;;;;;;;;;;;;;;;;;1033311;28;2045;-49
2022/05/13 00:47:14;;;;;;;;;;;;;;;;;;1033560;28;3794;-47
2022/05/13 00:47:45;;;;;;;;;;;;;;;;;;1032212;28;2871;-48
2022/05/13 00:48:15;;;;;;;;;;;;;;;;;;1033029;28;4018;-46
2022/05/13 00:48:46;;;;;;;;;;;;;;;;;;1033513;28;1664;-46
2022/05/13 00:49:16;;;;;;;;;;;;;;;;;;1032591;28;4384;-49
2022/05/13 00:49:47;;;;;;;;;;;;;;;;;;1033227;28;2932;-48
2022/05/13 00:50:17;;;;;;;;;;;;;;;;;;1031872;28;3741;-50
2022/05/13 00:50:48;;;;;;;;;;;;;;;;;;1030152;28;4369;-51
2022/05/13 00:51:23;;;;;;;;;;;;;;;;;;1032288;28;3956;-48
2022/05/13 00:51:53;;;;;;;;;;;;;;;;;;1032654;28;4489;-46
2022/05/13 00:52:24;;;;;;;;;;;;;;;;;;1033331;28;1804;-49
2022/05/13 00:52:54;;;;;;;;;;;;;;;;;;1033347;28;4262;-48
2022/05/13 00:53:25;;;;;;;;;;;;;;;;;;1034031;28;1667;-50
2022/05/13 00:53:55;;;;;;;;;;;;;;;;;;1032577;28;3876;-48
2022/05/13 00:54:27;;;;;;;;;;;;;;;;;;1032261;28;1487;-46
2022/05/13 00:54:58;;;;;;;;;;;;;;;;;;1031015;28;3936;-46
2022/05/13 00:55:36;;;;;;;;;;;;;;;;;;1033017;28;1566;-49
2022/05/13 00:56:06;;;;;;;;;;;;;;;;;;1032326;28;4251;-46
2022/05/13 00:56:37;;;;;;;;;;;;;;;;;;1033595;28;2913;-50
2022/05/13 00:57:07;;;;;;;;;;;;;;;;;;1032092;28;4008;-49
2022/05/13 00:57:39;;;;;;;;;;;;;;;;;;1033582;28;1668;-47
2022/05/13 00:58:12;;;;;;;;;;;;;;;;;;1032360;28;3858;-50
2022/05/13 00:58:43;;;;;;;;;;;;;;;;;;1033000;28;1679;-52
2022/05/13 00:59:15;;;;;;;;;;;;;;;;;;1031870;28;4248;-48
2022/05/13 00:59:46;;;;;;;;;;;;;;;;;;1032940;28;4155;-49
2022/05/13 01:00:18;;;;;;;;;;;;;;;;;;1036137;28;3707;-47
2022/05/13 01:00:48;;;;;;;;;;;;;;;;;;1037236;28;2070;-48
2022/05/13 01:01:19;;;;;;;;;;;;;;;;;;1037183;28;3691;-48
2022/05/13 01:01:50;;;;;;;;;;;;;;;;;;1031708;28;4093;-48
2022/05/13 01:02:21;;;;;;;;;;;;;;;;;;1033424;28;1621;-47
2022/05/13 01:02:51;;;;;;;;;;;;;;;;;;1033261;28;4407;-48
2022/05/13 01:03:21;;;;;;;;;;;;;;;;;;1032895;28;3791;-46
2022/05/13 01:03:52;;;;;;;;;;;;;;;;;;1031132;28;3916;-45
2022/05/13 01:04:24;;;;;;;;;;;;;;;;;;1031940;28;2929;-45
2022/05/13 01:04:55;;;;;;;;;;;;;;;;;;1032537;28;3790;-48
2022/05/13 01:05:25;;;;;;;;;;;;;;;;;;1031819;28;3812;-45
2022/05/13 01:05:59;;;;;;;;;;;;;;;;;;1032620;28;4031;-48
2022/05/13 01:06:29;;;;;;;;;;;;;;;;;;1032092;28;3341;-48
2022/05/13 01:07:03;;;;;;;;;;;;;;;;;;1032421;28;4103;-48
2022/05/13 01:07:33;;;;;;;;;;;;;;;;;;1031885;28;4185;-48
2022/05/13 01:08:06;;;;;;;;;;;;;;;;;;1032949;28;4368;-46
2022/05/13 01:08:43;;;;;;;;;;;;;;;;;;1032920;28;1276;-47
2022/05/13 01:09:13;;;;;;;;;;;;;;;;;;1033063;28;3837;-46
2022/05/13 01:09:47;;;;;;;;;;;;;;;;;;1033208;28;4850;-50
2022/05/13 01:10:22;;;;;;;;;;;;;;;;;;1036251;28;3891;-50
2022/05/13 01:10:55;;;;;;;;;;;;;;;;;;1036257;28;4405;-51
2022/05/13 01:11:26;;;;;;;;;;;;;;;;;;1036365;28;1697;-47
2022/05/13 01:11:58;;;;;;;;;;;;;;;;;;1033142;28;3863;-50
2022/05/13 01:12:31;;;;;;;;;;;;;;;;;;1033012;28;2501;-47
2022/05/13 01:13:04;;;;;;;;;;;;;;;;;;1033022;28;4250;-51
2022/05/13 01:13:34;;;;;;;;;;;;;;;;;;1033653;28;4335;-53
2022/05/13 01:14:06;;;;;;;;;;;;;;;;;;1031233;28;4734;-50
2022/05/13 01:14:47;;;;;;;;;;;;;;;;;;1031495;28;4276;-48
2022/05/13 01:15:19;;;;;;;;;;;;;;;;;;1032873;28;4537;-50
2022/05/13 01:15:51;;;;;;;;;;;;;;;;;;1033243;28;4043;-49
2022/05/13 01:16:21;;;;;;;;;;;;;;;;;;1032595;28;2914;-51
2022/05/13 01:18:34;;;;;;;;;;;;;;;;;;1032533;28;3975;-51
2022/05/13 01:19:04;;;;;;;;;;;;;;;;;;1032249;28;3922;-49
2022/05/13 01:19:34;;;;;;;;;;;;;;;;;;1032636;28;3797;-52
2022/05/13 01:20:05;;;;;;;;;;;;;;;;;;1031962;28;3905;-52
2022/05/13 01:20:41;;;;;;;;;;;;;;;;;;1032881;28;3929;-48
2022/05/13 01:21:14;;;;;;;;;;;;;;;;;;1031747;28;3837;-50
2022/05/13 01:21:46;;;;;;;;;;;;;;;;;;1033342;28;1614;-49
2022/05/13 01:22:17;;;;;;;;;;;;;;;;;;1032840;28;3939;-48
2022/05/13 01:22:48;;;;;;;;;;;;;;;;;;1033181;28;1932;-52
2022/05/13 01:23:24;;;;;;;;;;;;;;;;;;1032666;28;3704;-45
2022/05/13 01:23:54;;;;;;;;;;;;;;;;;;1032854;28;3938;-51
2022/05/13 01:24:24;;;;;;;;;;;;;;;;;;1032405;28;3006;-47
2022/05/13 01:24:55;;;;;;;;;;;;;;;;;;1032800;28;3984;-46
2022/05/13 01:25:26;;;;;;;;;;;;;;;;;;1032498;28;3673;-46
2022/05/13 01:25:56;;;;;;;;;;;;;;;;;;1033069;28;3988;-48
2022/05/13 01:26:29;;;;;;;;;;;;;;;;;;1031781;28;2922;-50
2022/05/13 01:26:59;;;;;;;;;;;;;;;;;;1032052;28;3915;-47
2022/05/13 01:27:31;;;;;;;;;;;;;;;;;;1033037;28;1717;-49
2022/05/13 01:28:06;;;;;;;;;;;;;;;;;;1032079;28;3953;-47
2022/05/13 01:28:38;;;;;;;;;;;;;;;;;;1030720;28;3059;-46
2022/05/13 01:29:09;;;;;;;;;;;;;;;;;;1030206;28;3904;-48
2022/05/13 01:29:39;;;;;;;;;;;;;;;;;;1030322;28;2101;-48
2022/05/13 01:30:10;;;;;;;;;;;;;;;;;;1029446;28;3939;-47
2022/05/13 01:30:44;;;;;;;;;;;;;;;;;;1030111;28;1835;-44
2022/05/13 01:31:20;;;;;;;;;;;;;;;;;;1033446;28;4000;-48
2022/05/13 01:31:50;;;;;;;;;;;;;;;;;;1031899;28;4430;-46
2022/05/13 01:32:21;;;;;;;;;;;;;;;;;;1031624;28;4798;-48
2022/05/13 01:32:57;;;;;;;;;;;;;;;;;;1035105;28;4116;-47
2022/05/13 01:33:35;;;;;;;;;;;;;;;;;;1038086;28;1591;-45
2022/05/13 01:34:06;;;;;;;;;;;;;;;;;;1035732;28;4242;-50
2022/05/13 01:34:37;;;;;;;;;;;;;;;;;;1035865;28;3008;-47
2022/05/13 01:35:08;;;;;;;;;;;;;;;;;;1037357;28;3883;-47
2022/05/13 01:35:42;;;;;;;;;;;;;;;;;;1035310;28;3955;-51
2022/05/13 01:36:12;;;;;;;;;;;;;;;;;;1035304;28;3824;-50
2022/05/13 01:36:43;;;;;;;;;;;;;;;;;;1033149;28;3701;-47
2022/05/13 01:37:13;;;;;;;;;;;;;;;;;;1033118;28;4163;-50
2022/05/13 01:37:43;;;;;;;;;;;;;;;;;;1033177;28;2020;-52
2022/05/13 01:38:14;;;;;;;;;;;;;;;;;;1036666;28;4052;-48
2022/05/13 01:38:45;;;;;;;;;;;;;;;;;;1037147;28;2000;-50
2022/05/13 01:39:15;;;;;;;;;;;;;;;;;;1036571;28;4065;-48
2022/05/13 01:39:45;;;;;;;;;;;;;;;;;;1037554;28;2135;-46
2022/05/13 01:40:16;;;;;;;;;;;;;;;;;;1036477;28;3876;-46
2022/05/13 01:40:46;;;;;;;;;;;;;;;;;;1037222;28;3105;-52
2022/05/13 01:41:17;;;;;;;;;;;;;;;;;;1036244;28;3837;-47
2022/05/13 01:41:48;;;;;;;;;;;;;;;;;;1037290;28;3956;-47
2022/05/13 01:42:18;;;;;;;;;;;;;;;;;;1036420;28;4515;-47
2022/05/13 01:42:49;;;;;;;;;;;;;;;;;;1037730;28;1959;-48
2022/05/13 01:43:19;;;;;;;;;;;;;;;;;;1037067;28;3717;-47
2022/05/13 01:43:50;;;;;;;;;;;;;;;;;;1036711;28;3930;-46
2022/05/13 01:44:21;;;;;;;;;;;;;;;;;;1037522;28;2008;-48
2022/05/13 01:44:51;;;;;;;;;;;;;;;;;;1037188;28;3902;-45
2022/05/13 01:45:21;;;;;;;;;;;;;;;;;;1037496;28;2192;-50
2022/05/13 01:45:52;;;;;;;;;;;;;;;;;;1036905;28;4264;-48
2022/05/13 01:46:22;;;;;;;;;;;;;;;;;;1037955;28;1967;-48
2022/05/13 01:46:52;;;;;;;;;;;;;;;;;;1037109;28;3879;-47
2022/05/13 01:47:24;;;;;;;;;;;;;;;;;;1037144;28;1584;-48
2022/05/13 01:47:54;;;;;;;;;;;;;;;;;;1036262;28;4051;-49
2022/05/13 01:48:25;;;;;;;;;;;;;;;;;;1037779;28;2001;-49
2022/05/13 01:48:56;;;;;;;;;;;;;;;;;;1037453;28;4411;-48
2022/05/13 01:49:26;;;;;;;;;;;;;;;;;;1037117;28;2240;-46
2022/05/13 01:49:57;;;;;;;;;;;;;;;;;;1035711;28;3928;-49
2022/05/13 01:50:27;;;;;;;;;;;;;;;;;;1032377;28;3999;-49
2022/05/13 01:50:58;;;;;;;;;;;;;;;;;;1031811;28;3886;-48
2022/05/13 01:51:28;;;;;;;;;;;;;;;;;;1033408;28;1726;-46
2022/05/13 01:51:58;;;;;;;;;;;;;;;;;;1033477;28;3974;-45
2022/05/13 01:52:29;;;;;;;;;;;;;;;;;;1037093;28;1739;-48
2022/05/13 01:52:59;;;;;;;;;;;;;;;;;;1036440;28;3782;-49
2022/05/13 01:53:30;;;;;;;;;;;;;;;;;;1038549;28;1865;-45
2022/05/13 01:54:00;;;;;;;;;;;;;;;;;;1036711;28;3870;-50
2022/05/13 01:54:30;;;;;;;;;;;;;;;;;;1033020;28;2135;-47
2022/05/13 01:55:01;;;;;;;;;;;;;;;;;;1030917;28;4006;-48
2022/05/13 01:55:31;;;;;;;;;;;;;;;;;;1033596;28;2218;-47
2022/05/13 01:56:01;;;;;;;;;;;;;;;;;;1032240;28;3894;-48
2022/05/13 01:56:31;;;;;;;;;;;;;;;;;;1037291;28;2007;-51
2022/05/13 01:57:02;;;;;;;;;;;;;;;;;;1037281;28;3818;-49
2022/05/13 01:57:32;;;;;;;;;;;;;;;;;;1037346;28;1492;-53
2022/05/13 01:58:02;;;;;;;;;;;;;;;;;;1036149;28;3999;-49
2022/05/13 01:58:33;;;;;;;;;;;;;;;;;;1037514;28;1871;-51
2022/05/13 01:59:03;;;;;;;;;;;;;;;;;;1037465;28;4252;-53
2022/05/13 01:59:33;;;;;;;;;;;;;;;;;;1036333;28;2224;-52
2022/05/13 02:00:04;;;;;;;;;;;;;;;;;;1036802;28;4472;-50
2022/05/13 02:00:35;;;;;;;;;;;;;;;;;;1036768;28;1852;-51
2022/05/13 02:01:06;;;;;;;;;;;;;;;;;;1037014;28;4579;-50
2022/05/13 02:01:36;;;;;;;;;;;;;;;;;;1037617;28;2029;-47
2022/05/13 02:02:07;;;;;;;;;;;;;;;;;;1037082;28;3986;-52
2022/05/13 02:03:44;;;;;;;;;;;;;;;;;;1037147;28;3405;-52
2022/05/13 02:03:45;;;;;;;;;;;;;;;;;;1037677;28;3805;-52
2022/05/13 02:04:16;;;;;;;;;;;;;;;;;;1036848;28;3907;-53
2022/05/13 02:04:46;;;;;;;;;;;;;;;;;;1036828;28;4160;-51
2022/05/13 02:05:17;;;;;;;;;;;;;;;;;;1036028;28;4165;-54
2022/05/13 02:05:47;;;;;;;;;;;;;;;;;;1036914;28;3961;-50
2022/05/13 02:06:24;;;;;;;;;;;;;;;;;;1036773;28;4242;-49
2022/05/13 02:06:54;;;;;;;;;;;;;;;;;;1036197;28;3840;-55
2022/05/13 02:07:31;;;;;;;;;;;;;;;;;;1036697;28;3111;-47
2022/05/13 02:08:02;;;;;;;;;;;;;;;;;;1036222;28;3799;-52
2022/05/13 02:08:33;;;;;;;;;;;;;;;;;;1038309;28;1600;-48
2022/05/13 02:09:03;;;;;;;;;;;;;;;;;;1036527;28;3963;-47
2022/05/13 02:09:33;;;;;;;;;;;;;;;;;;1038032;28;2180;-51
2022/05/13 02:10:04;;;;;;;;;;;;;;;;;;1034625;28;3827;-54
2022/05/13 02:10:34;;;;;;;;;;;;;;;;;;1036621;28;3634;-47
2022/05/13 02:11:05;;;;;;;;;;;;;;;;;;1038180;28;3931;-49
2022/05/13 02:11:36;;;;;;;;;;;;;;;;;;1039342;28;1538;-48
2022/05/13 02:12:07;;;;;;;;;;;;;;;;;;1035588;28;4048;-51
2022/05/13 02:12:37;;;;;;;;;;;;;;;;;;1037833;28;4429;-50
2022/05/13 02:13:08;;;;;;;;;;;;;;;;;;1037153;28;5283;-47
2022/05/13 02:13:40;;;;;;;;;;;;;;;;;;1037298;28;1963;-47
2022/05/13 02:14:10;;;;;;;;;;;;;;;;;;1036904;28;3975;-47
2022/05/13 02:14:41;;;;;;;;;;;;;;;;;;1036320;28;3949;-48
2022/05/13 02:15:11;;;;;;;;;;;;;;;;;;1036417;28;4164;-45
2022/05/13 02:15:42;;;;;;;;;;;;;;;;;;1036348;28;1513;-48
2022/05/13 02:16:13;;;;;;;;;;;;;;;;;;1037106;28;3777;-48
2022/05/13 02:16:43;;;;;;;;;;;;;;;;;;1036783;28;2106;-48
2022/05/13 02:17:13;;;;;;;;;;;;;;;;;;1037133;28;3827;-48
2022/05/13 02:17:43;;;;;;;;;;;;;;;;;;1036092;28;1813;-46
2022/05/13 02:18:14;;;;;;;;;;;;;;;;;;1037112;28;4029;-48
2022/05/13 02:18:44;;;;;;;;;;;;;;;;;;1036537;28;3015;-50
2022/05/13 02:19:16;;;;;;;;;;;;;;;;;;1037046;28;4005;-47
2022/05/13 02:19:46;;;;;;;;;;;;;;;;;;1036316;28;2231;-49
2022/05/13 02:20:17;;;;;;;;;;;;;;;;;;1036224;28;3704;-48
2022/05/13 02:20:47;;;;;;;;;;;;;;;;;;1036541;28;4006;-52
2022/05/13 02:21:19;;;;;;;;;;;;;;;;;;1035815;28;4203;-49
2022/05/13 02:21:49;;;;;;;;;;;;;;;;;;1037670;28;2018;-50
2022/05/13 02:22:19;;;;;;;;;;;;;;;;;;1036013;28;7080;-48
2022/05/13 02:22:49;;;;;;;;;;;;;;;;;;1037294;28;3952;-52
2022/05/13 02:23:20;;;;;;;;;;;;;;;;;;1035842;28;3016;-52
2022/05/13 02:23:51;;;;;;;;;;;;;;;;;;1037261;28;3967;-50
2022/05/13 02:24:22;;;;;;;;;;;;;;;;;;1036940;28;1727;-49
2022/05/13 02:24:52;;;;;;;;;;;;;;;;;;1037045;28;3854;-50
2022/05/13 02:25:22;;;;;;;;;;;;;;;;;;1038125;28;1180;-54
2022/05/13 02:25:57;;;;;;;;;;;;;;;;;;1033899;28;3787;-53
2022/05/13 02:26:27;;;;;;;;;;;;;;;;;;1037993;28;1400;-49
2022/05/13 02:26:57;;;;;;;;;;;;;;;;;;1035295;28;3968;-49
2022/05/13 02:27:28;;;;;;;;;;;;;;;;;;1037764;28;1619;-51
2022/05/13 02:27:58;;;;;;;;;;;;;;;;;;1036900;28;3902;-55
2022/05/13 02:28:30;;;;;;;;;;;;;;;;;;1030227;28;1572;-52
2022/05/13 02:29:01;;;;;;;;;;;;;;;;;;1029623;28;3911;-48
2022/05/13 02:29:31;;;;;;;;;;;;;;;;;;1037196;28;2270;-47
2022/05/13 02:30:03;;;;;;;;;;;;;;;;;;1036427;28;3895;-50
2022/05/13 02:30:33;;;;;;;;;;;;;;;;;;1040561;28;2032;-48
2022/05/13 02:31:03;;;;;;;;;;;;;;;;;;1036855;28;3866;-49
2022/05/13 02:31:34;;;;;;;;;;;;;;;;;;1036832;28;2226;-46
2022/05/13 02:32:05;;;;;;;;;;;;;;;;;;1037254;28;4012;-47
2022/05/13 02:32:42;;;;;;;;;;;;;;;;;;1036630;28;1861;-49
2022/05/13 02:33:19;;;;;;;;;;;;;;;;;;1041631;28;4320;-50
2022/05/13 02:33:49;;;;;;;;;;;;;;;;;;1038178;28;3980;-47
2022/05/13 02:34:20;;;;;;;;;;;;;;;;;;1040355;28;3794;-48
2022/05/13 02:34:50;;;;;;;;;;;;;;;;;;1036765;28;3926;-51
2022/05/13 02:35:20;;;;;;;;;;;;;;;;;;1037354;28;2240;-51
2022/05/13 02:35:51;;;;;;;;;;;;;;;;;;1036100;28;3796;-52
2022/05/13 02:36:21;;;;;;;;;;;;;;;;;;1036777;28;3732;-51
2022/05/13 02:36:51;;;;;;;;;;;;;;;;;;1040988;28;4028;-49
2022/05/13 02:37:21;;;;;;;;;;;;;;;;;;1041712;28;1733;-48
2022/05/13 02:37:52;;;;;;;;;;;;;;;;;;1041084;28;3787;-48
2022/05/13 02:38:22;;;;;;;;;;;;;;;;;;1041277;28;2184;-51
2022/05/13 02:38:52;;;;;;;;;;;;;;;;;;1041195;28;4386;-50
2022/05/13 02:39:23;;;;;;;;;;;;;;;;;;1040068;28;2752;-48
2022/05/13 02:39:53;;;;;;;;;;;;;;;;;;1035742;28;4112;-47
2022/05/13 02:41:11;;;;;;;;;;;;;;;;;;1036212;28;3912;-51
2022/05/13 02:41:16;;;;;;;;;;;;;;;;;;1036580;28;3800;-47
2022/05/13 02:41:47;;;;;;;;;;;;;;;;;;1039656;28;1582;-48
2022/05/13 02:42:17;;;;;;;;;;;;;;;;;;1041559;28;4026;-49
2022/05/13 02:42:47;;;;;;;;;;;;;;;;;;1041188;28;1909;-48
2022/05/13 02:43:17;;;;;;;;;;;;;;;;;;1041051;28;3731;-49
2022/05/13 02:43:53;;;;;;;;;;;;;;;;;;1040414;28;1600;-48
2022/05/13 02:44:23;;;;;;;;;;;;;;;;;;1040705;28;3837;-47
2022/05/13 02:44:54;;;;;;;;;;;;;;;;;;1041075;28;3883;-46
2022/05/13 02:45:24;;;;;;;;;;;;;;;;;;1040676;28;4321;-51
2022/05/13 02:45:54;;;;;;;;;;;;;;;;;;1040668;28;3772;-48
2022/05/13 02:46:26;;;;;;;;;;;;;;;;;;1039764;28;3889;-49
2022/05/13 02:46:57;;;;;;;;;;;;;;;;;;1040086;28;4159;-48
2022/05/13 02:47:27;;;;;;;;;;;;;;;;;;1037413;28;1847;-47
2022/05/13 02:47:57;;;;;;;;;;;;;;;;;;1037827;28;3948;-46
2022/05/13 02:48:28;;;;;;;;;;;;;;;;;;1037076;28;1732;-50
2022/05/13 02:48:59;;;;;;;;;;;;;;;;;;1037438;28;4285;-49
2022/05/13 02:49:29;;;;;;;;;;;;;;;;;;1040953;28;1917;-47
2022/05/13 02:50:18;;;;;;;;;;;;;;;;;;1033648;28;4220;-48
2022/05/13 02:50:48;;;;;;;;;;;;;;;;;;1033970;28;4040;-50
2022/05/13 02:51:19;;;;;;;;;;;;;;;;;;1033455;28;4316;-49
2022/05/13 02:51:50;;;;;;;;;;;;;;;;;;1034620;28;4508;-51
2022/05/13 02:52:20;;;;;;;;;;;;;;;;;;1037421;28;1684;-46
2022/05/13 02:52:50;;;;;;;;;;;;;;;;;;1036971;28;4043;-49
2022/05/13 02:53:21;;;;;;;;;;;;;;;;;;1037687;28;1686;-49
2022/05/13 02:53:52;;;;;;;;;;;;;;;;;;1040517;28;3864;-50
2022/05/13 02:54:22;;;;;;;;;;;;;;;;;;1041615;28;1354;-49
2022/05/13 02:54:52;;;;;;;;;;;;;;;;;;1039761;28;3946;-47
2022/05/13 02:55:23;;;;;;;;;;;;;;;;;;1040736;28;2434;-46
2022/05/13 02:55:53;;;;;;;;;;;;;;;;;;1037439;28;4070;-47
2022/05/13 02:56:24;;;;;;;;;;;;;;;;;;1037184;28;1663;-45
2022/05/13 02:56:54;;;;;;;;;;;;;;;;;;1032955;28;4181;-51
2022/05/13 02:57:24;;;;;;;;;;;;;;;;;;1035810;28;1828;-49
2022/05/13 02:57:54;;;;;;;;;;;;;;;;;;1036890;28;3786;-46
2022/05/13 02:58:25;;;;;;;;;;;;;;;;;;1036445;28;2920;-48
2022/05/13 02:58:55;;;;;;;;;;;;;;;;;;1040516;28;4113;-47
2022/05/13 02:59:25;;;;;;;;;;;;;;;;;;1040785;28;2236;-49
2022/05/13 02:59:56;;;;;;;;;;;;;;;;;;1040967;28;3777;-50
2022/05/13 03:00:26;;;;;;;;;;;;;;;;;;1040838;28;2637;-49
2022/05/13 03:00:56;;;;;;;;;;;;;;;;;;1040011;28;4481;-48
2022/05/13 03:01:27;;;;;;;;;;;;;;;;;;1037747;28;1640;-46
2022/05/13 03:01:57;;;;;;;;;;;;;;;;;;1030246;28;3885;-51
2022/05/13 03:02:28;;;;;;;;;;;;;;;;;;1029893;28;1544;-48
2022/05/13 03:02:58;;;;;;;;;;;;;;;;;;1029377;28;3850;-49
2022/05/13 03:03:40;;;;;;;;;;;;;;;;;;1035078;28;1625;-49
2022/05/13 03:04:10;;;;;;;;;;;;;;;;;;1040438;28;4376;-49
2022/05/13 03:04:40;;;;;;;;;;;;;;;;;;1042030;28;1208;-47
2022/05/13 03:05:11;;;;;;;;;;;;;;;;;;1040545;28;4208;-49
2022/05/13 03:05:41;;;;;;;;;;;;;;;;;;1041592;28;1674;-48
2022/05/13 03:06:12;;;;;;;;;;;;;;;;;;1040584;28;3824;-47
2022/05/13 03:06:42;;;;;;;;;;;;;;;;;;1040163;28;3031;-49
2022/05/13 03:07:13;;;;;;;;;;;;;;;;;;1041366;28;3802;-52
2022/05/13 03:07:43;;;;;;;;;;;;;;;;;;1039617;28;2942;-50
2022/05/13 03:08:13;;;;;;;;;;;;;;;;;;1041098;28;3882;-51
2022/05/13 03:08:44;;;;;;;;;;;;;;;;;;1040515;28;2869;-50
2022/05/13 03:09:14;;;;;;;;;;;;;;;;;;1041014;28;4174;-47
2022/05/13 03:09:44;;;;;;;;;;;;;;;;;;1040060;28;3746;-49
2022/05/13 03:10:14;;;;;;;;;;;;;;;;;;1039995;28;3750;-50
2022/05/13 03:10:45;;;;;;;;;;;;;;;;;;1041477;28;1898;-48
2022/05/13 03:11:16;;;;;;;;;;;;;;;;;;1041040;28;3842;-49
2022/05/13 03:11:46;;;;;;;;;;;;;;;;;;1041420;28;1677;-46
2022/05/13 03:12:17;;;;;;;;;;;;;;;;;;1039430;28;3896;-53
2022/05/13 03:12:47;;;;;;;;;;;;;;;;;;1037627;28;1397;-50
2022/05/13 03:13:18;;;;;;;;;;;;;;;;;;1029524;28;3866;-50
2022/05/13 03:13:50;;;;;;;;;;;;;;;;;;1033341;28;2545;-52
2022/05/13 03:14:20;;;;;;;;;;;;;;;;;;1032912;28;3768;-46
2022/05/13 03:14:50;;;;;;;;;;;;;;;;;;1037308;28;3872;-47
2022/05/13 03:15:20;;;;;;;;;;;;;;;;;;1040662;28;1655;-50
2022/05/13 03:15:51;;;;;;;;;;;;;;;;;;1040562;28;3785;-48
2022/05/13 03:16:23;;;;;;;;;;;;;;;;;;1041088;28;1884;-49
2022/05/13 03:16:53;;;;;;;;;;;;;;;;;;1040981;28;4203;-50
2022/05/13 03:17:24;;;;;;;;;;;;;;;;;;1041415;28;2160;-47
2022/05/13 03:17:55;;;;;;;;;;;;;;;;;;1032916;28;3803;-53
2022/05/13 03:18:27;;;;;;;;;;;;;;;;;;1037733;28;2111;-47
2022/05/13 03:18:59;;;;;;;;;;;;;;;;;;1036423;28;3968;-47
2022/05/13 03:19:29;;;;;;;;;;;;;;;;;;1037445;28;2241;-47
2022/05/13 03:20:00;;;;;;;;;;;;;;;;;;1040569;28;3910;-48
2022/05/13 03:20:31;;;;;;;;;;;;;;;;;;1037420;28;1132;-49
2022/05/13 03:21:01;;;;;;;;;;;;;;;;;;1034955;28;4506;-50
2022/05/13 03:21:31;;;;;;;;;;;;;;;;;;1036808;28;3748;-48
2022/05/13 03:22:02;;;;;;;;;;;;;;;;;;1037182;28;3936;-48
2022/05/13 03:22:33;;;;;;;;;;;;;;;;;;1038659;28;1601;-47
2022/05/13 03:23:03;;;;;;;;;;;;;;;;;;1037213;28;3747;-51
2022/05/13 03:23:33;;;;;;;;;;;;;;;;;;1038719;28;2169;-47
2022/05/13 03:24:04;;;;;;;;;;;;;;;;;;1041366;28;4114;-47
2022/05/13 03:24:35;;;;;;;;;;;;;;;;;;1040530;28;3990;-51
2022/05/13 03:25:05;;;;;;;;;;;;;;;;;;1042651;28;4931;-47
2022/05/13 03:25:35;;;;;;;;;;;;;;;;;;1041490;28;1827;-47
2022/05/13 03:26:06;;;;;;;;;;;;;;;;;;1042164;28;3750;-50
2022/05/13 03:26:36;;;;;;;;;;;;;;;;;;1041691;28;2080;-48
2022/05/13 03:27:07;;;;;;;;;;;;;;;;;;1040205;28;3780;-48
2022/05/13 03:27:37;;;;;;;;;;;;;;;;;;1039281;28;2321;-47
2022/05/13 03:28:10;;;;;;;;;;;;;;;;;;1037819;28;4975;-48
2022/05/13 03:28:41;;;;;;;;;;;;;;;;;;1039679;28;1559;-50
2022/05/13 03:29:11;;;;;;;;;;;;;;;;;;1041917;28;3857;-46
2022/05/13 03:29:41;;;;;;;;;;;;;;;;;;1041832;28;2132;-49
2022/05/13 03:30:13;;;;;;;;;;;;;;;;;;1041829;28;4533;-48
2022/05/13 03:30:44;;;;;;;;;;;;;;;;;;1037648;28;1769;-51
2022/05/13 03:31:14;;;;;;;;;;;;;;;;;;1036219;28;3991;-48
2022/05/13 03:31:44;;;;;;;;;;;;;;;;;;1037817;28;1915;-45
2022/05/13 03:32:14;;;;;;;;;;;;;;;;;;1037839;28;3863;-47
2022/05/13 03:32:51;;;;;;;;;;;;;;;;;;1040897;28;1821;-48
2022/05/13 03:33:28;;;;;;;;;;;;;;;;;;1041336;28;3869;-47
2022/05/13 03:34:05;;;;;;;;;;;;;;;;;;1041216;28;4002;-47
2022/05/13 03:34:37;;;;;;;;;;;;;;;;;;1042643;28;1787;-46
2022/05/13 03:35:09;;;;;;;;;;;;;;;;;;1041202;28;4156;-48
2022/05/13 03:35:39;;;;;;;;;;;;;;;;;;1041066;28;4276;-47
2022/05/13 03:36:12;;;;;;;;;;;;;;;;;;1041615;28;3927;-53
2022/05/13 03:36:42;;;;;;;;;;;;;;;;;;1042347;28;1343;-49
2022/05/13 03:37:12;;;;;;;;;;;;;;;;;;1041356;28;4408;-48
2022/05/13 03:37:43;;;;;;;;;;;;;;;;;;1042430;28;1654;-49
2022/05/13 03:38:13;;;;;;;;;;;;;;;;;;1041507;28;3771;-48
2022/05/13 03:38:43;;;;;;;;;;;;;;;;;;1042287;28;1683;-46
2022/05/13 03:39:13;;;;;;;;;;;;;;;;;;1040132;28;3964;-50
2022/05/13 03:39:44;;;;;;;;;;;;;;;;;;1036910;28;2664;-47
2022/05/13 03:40:15;;;;;;;;;;;;;;;;;;1036867;28;4236;-50